الصفحة الرئيسية
METAR-TAF:

METAR-TAF

مطار :

مطار الرباط سلا

الرباط, المغرب

دائرة عرض: 34-03N, خط طول: 006-46W, ارتفاع: 84 متر

مراقبة الطقس الحالي

تاريخ ووقت الإصدار 32 دقيقة قبل الساعة 04:00UTC
ريح 2 عقدةمن اتجاهات متغيرة
درجة الحرارة 18°درجة مئوية
الرطوبة 88%
ضغط 1015 hPa
الرؤية: 7000 متر
غيوم مفككة على ارتفاع 2000 قدم

METAR: GMME 180400Z VRB02KT 7000 BKN020 18/16 Q1015 NOSIG

زمن: 05:32 (04:32 UTC)

توقعات

تاريخ ووقت الإصدار 5ساعات و 32 دقيقة قبل الساعة 23:00UTC
التوقعات صالحة من18 الساعة 00 UTC إلى 19 الساعة 06 UTC
ريح 10 عقدة من الشمال/الشمال الغربي
الرؤية 10 كم أو أكثر
غيوم متفرقة على ارتفاع 2000 قدم
مؤقت
من 18 الساعة 00 UTC إلى 18 الساعة 06 UTC
ريح 8 عقدة من الجنوب الغربي
الرؤية: 6000 متر
غيوم متفرقة على ارتفاع 1200 قدم
غيوم متفرقة على ارتفاع 1600 قدم

TAF: GMME 172300Z 1800/1906 34010KT 9999 SCT020 TEMPO 1800/1806 22008KT 6000 SCT012 SCT016

أرصاد الطقس والتوقعات من أكثر من 4000 مطار (تقارير الطقس للمطار METAR والتنبؤ بالطقس بالمطارTAF).

المحطات المتاحة هي النقط الصفراء والحمراء على الخريطة.

حرك المؤشر فوق النقطة لمعرفة اسم المحطة.

ثم انقر لمعرفة أرصاد وتوقعات الطقس.

لتغيير الخارطة: اضغط على الأزرار الخضراء مع رمز الصليب الأسود للتكبير. على الزر الأخضر مع شرطة للتصغير، أو على الأسهم الخضراء للخرائط المجاورة.


METAR-TAF: